sensor_id;sensor_type;location;lat;lon;timestamp;temperature;humidity
9373;DHT22;10838;52.350;9.790;2023-12-20T00:01:33;8.40;98.20
9373;DHT22;10838;52.350;9.790;2023-12-20T00:03:59;8.40;98.20
9373;DHT22;10838;52.350;9.790;2023-12-20T00:06:26;8.40;98.20
9373;DHT22;10838;52.350;9.790;2023-12-20T00:08:52;8.40;98.10
9373;DHT22;10838;52.350;9.790;2023-12-20T00:11:20;8.40;98.10
9373;DHT22;10838;52.350;9.790;2023-12-20T00:13:47;8.30;98.10
9373;DHT22;10838;52.350;9.790;2023-12-20T00:16:13;8.30;98.10
9373;DHT22;10838;52.350;9.790;2023-12-20T00:18:40;8.40;98.10
9373;DHT22;10838;52.350;9.790;2023-12-20T00:21:06;8.30;98.10
9373;DHT22;10838;52.350;9.790;2023-12-20T00:23:33;8.30;98.10
9373;DHT22;10838;52.350;9.790;2023-12-20T00:26:00;8.30;98.10
9373;DHT22;10838;52.350;9.790;2023-12-20T00:28:27;8.30;98.10
9373;DHT22;10838;52.350;9.790;2023-12-20T00:30:54;8.30;98.10
9373;DHT22;10838;52.350;9.790;2023-12-20T00:33:20;8.30;98.10
9373;DHT22;10838;52.350;9.790;2023-12-20T00:35:47;8.20;98.00
9373;DHT22;10838;52.350;9.790;2023-12-20T00:38:14;8.20;98.00
9373;DHT22;10838;52.350;9.790;2023-12-20T00:40:41;8.20;98.00
9373;DHT22;10838;52.350;9.790;2023-12-20T00:43:07;8.20;98.00
9373;DHT22;10838;52.350;9.790;2023-12-20T00:45:35;8.20;98.00
9373;DHT22;10838;52.350;9.790;2023-12-20T00:48:02;8.10;98.00
9373;DHT22;10838;52.350;9.790;2023-12-20T00:50:28;8.10;98.00
9373;DHT22;10838;52.350;9.790;2023-12-20T00:52:55;8.10;98.00
9373;DHT22;10838;52.350;9.790;2023-12-20T00:55:22;8.10;98.00
9373;DHT22;10838;52.350;9.790;2023-12-20T00:57:48;8.00;98.00
9373;DHT22;10838;52.350;9.790;2023-12-20T01:00:15;8.00;97.90
9373;DHT22;10838;52.350;9.790;2023-12-20T01:02:43;8.00;97.90
9373;DHT22;10838;52.350;9.790;2023-12-20T01:05:12;8.00;97.90
9373;DHT22;10838;52.350;9.790;2023-12-20T01:07:38;7.90;97.90
9373;DHT22;10838;52.350;9.790;2023-12-20T01:10:05;7.90;97.90
9373;DHT22;10838;52.350;9.790;2023-12-20T01:12:32;7.90;97.90
9373;DHT22;10838;52.350;9.790;2023-12-20T01:14:58;8.00;97.90
9373;DHT22;10838;52.350;9.790;2023-12-20T01:17:25;7.90;97.90
9373;DHT22;10838;52.350;9.790;2023-12-20T01:19:53;7.80;97.90
9373;DHT22;10838;52.350;9.790;2023-12-20T01:22:19;7.80;97.90
9373;DHT22;10838;52.350;9.790;2023-12-20T01:24:46;7.80;97.80
9373;DHT22;10838;52.350;9.790;2023-12-20T01:27:12;7.80;97.80
9373;DHT22;10838;52.350;9.790;2023-12-20T01:29:39;7.70;97.80
9373;DHT22;10838;52.350;9.790;2023-12-20T01:32:06;7.70;97.80
9373;DHT22;10838;52.350;9.790;2023-12-20T01:34:33;7.70;97.80
9373;DHT22;10838;52.350;9.790;2023-12-20T01:37:00;7.70;97.80
9373;DHT22;10838;52.350;9.790;2023-12-20T01:39:28;7.70;97.80
9373;DHT22;10838;52.350;9.790;2023-12-20T01:41:54;7.70;97.80
9373;DHT22;10838;52.350;9.790;2023-12-20T01:44:21;7.70;97.80
9373;DHT22;10838;52.350;9.790;2023-12-20T01:46:47;7.60;97.80
9373;DHT22;10838;52.350;9.790;2023-12-20T01:49:14;7.60;97.80
9373;DHT22;10838;52.350;9.790;2023-12-20T01:51:42;7.60;97.80
9373;DHT22;10838;52.350;9.790;2023-12-20T01:54:10;7.60;97.80
9373;DHT22;10838;52.350;9.790;2023-12-20T01:56:36;7.60;97.80
9373;DHT22;10838;52.350;9.790;2023-12-20T01:59:04;7.60;97.80
9373;DHT22;10838;52.350;9.790;2023-12-20T02:01:30;7.60;97.80
9373;DHT22;10838;52.350;9.790;2023-12-20T02:03:58;7.50;97.80
9373;DHT22;10838;52.350;9.790;2023-12-20T02:06:30;7.50;97.80
9373;DHT22;10838;52.350;9.790;2023-12-20T02:08:57;7.50;97.80
9373;DHT22;10838;52.350;9.790;2023-12-20T02:11:25;7.40;97.80
9373;DHT22;10838;52.350;9.790;2023-12-20T02:13:53;7.50;97.80
9373;DHT22;10838;52.350;9.790;2023-12-20T02:16:19;7.40;97.70
9373;DHT22;10838;52.350;9.790;2023-12-20T02:18:47;7.40;97.70
9373;DHT22;10838;52.350;9.790;2023-12-20T02:21:14;7.40;97.70
9373;DHT22;10838;52.350;9.790;2023-12-20T02:23:42;7.40;97.70
9373;DHT22;10838;52.350;9.790;2023-12-20T02:26:09;7.40;97.70
9373;DHT22;10838;52.350;9.790;2023-12-20T02:28:36;7.40;97.80
9373;DHT22;10838;52.350;9.790;2023-12-20T02:31:03;7.30;97.70
9373;DHT22;10838;52.350;9.790;2023-12-20T02:33:29;7.30;97.70
9373;DHT22;10838;52.350;9.790;2023-12-20T02:35:56;7.30;97.70
9373;DHT22;10838;52.350;9.790;2023-12-20T02:38:22;7.30;97.70
9373;DHT22;10838;52.350;9.790;2023-12-20T02:40:50;7.20;97.70
9373;DHT22;10838;52.350;9.790;2023-12-20T02:43:17;7.20;97.70
9373;DHT22;10838;52.350;9.790;2023-12-20T02:45:43;7.20;97.70
9373;DHT22;10838;52.350;9.790;2023-12-20T02:48:10;7.20;97.70
9373;DHT22;10838;52.350;9.790;2023-12-20T02:50:37;7.20;97.60
9373;DHT22;10838;52.350;9.790;2023-12-20T02:53:03;7.10;97.60
9373;DHT22;10838;52.350;9.790;2023-12-20T02:55:30;7.10;97.60
9373;DHT22;10838;52.350;9.790;2023-12-20T02:57:58;7.10;97.60
9373;DHT22;10838;52.350;9.790;2023-12-20T03:00:24;7.10;97.60
9373;DHT22;10838;52.350;9.790;2023-12-20T03:02:51;7.00;97.60
9373;DHT22;10838;52.350;9.790;2023-12-20T03:05:17;7.00;97.60
9373;DHT22;10838;52.350;9.790;2023-12-20T03:07:44;7.00;97.60
9373;DHT22;10838;52.350;9.790;2023-12-20T03:10:11;7.00;97.60
9373;DHT22;10838;52.350;9.790;2023-12-20T03:12:37;6.90;97.60
9373;DHT22;10838;52.350;9.790;2023-12-20T03:15:05;6.90;97.60
9373;DHT22;10838;52.350;9.790;2023-12-20T03:17:32;6.90;97.60
9373;DHT22;10838;52.350;9.790;2023-12-20T03:19:58;6.90;97.50
9373;DHT22;10838;52.350;9.790;2023-12-20T03:22:25;6.90;97.50
9373;DHT22;10838;52.350;9.790;2023-12-20T03:24:51;6.90;97.50
9373;DHT22;10838;52.350;9.790;2023-12-20T03:27:18;6.90;97.50
9373;DHT22;10838;52.350;9.790;2023-12-20T03:29:44;6.80;97.50
9373;DHT22;10838;52.350;9.790;2023-12-20T03:32:12;6.80;97.50
9373;DHT22;10838;52.350;9.790;2023-12-20T03:34:39;6.80;97.50
9373;DHT22;10838;52.350;9.790;2023-12-20T03:37:05;6.80;97.50
9373;DHT22;10838;52.350;9.790;2023-12-20T03:39:32;6.80;97.50
9373;DHT22;10838;52.350;9.790;2023-12-20T03:41:58;6.70;97.50
9373;DHT22;10838;52.350;9.790;2023-12-20T03:44:25;6.70;97.50
9373;DHT22;10838;52.350;9.790;2023-12-20T03:46:51;6.70;97.50
9373;DHT22;10838;52.350;9.790;2023-12-20T03:49:19;6.70;97.50
9373;DHT22;10838;52.350;9.790;2023-12-20T03:51:46;6.70;97.50
9373;DHT22;10838;52.350;9.790;2023-12-20T03:54:12;6.70;97.50
9373;DHT22;10838;52.350;9.790;2023-12-20T03:56:39;6.70;97.50
9373;DHT22;10838;52.350;9.790;2023-12-20T03:59:05;6.70;97.50
9373;DHT22;10838;52.350;9.790;2023-12-20T04:01:32;6.70;97.50
9373;DHT22;10838;52.350;9.790;2023-12-20T04:03:58;6.70;97.50
9373;DHT22;10838;52.350;9.790;2023-12-20T04:06:26;6.60;97.40
9373;DHT22;10838;52.350;9.790;2023-12-20T04:08:53;6.60;97.40
9373;DHT22;10838;52.350;9.790;2023-12-20T04:11:20;6.60;97.40
9373;DHT22;10838;52.350;9.790;2023-12-20T04:13:46;6.60;97.40
9373;DHT22;10838;52.350;9.790;2023-12-20T04:16:13;6.60;97.40
9373;DHT22;10838;52.350;9.790;2023-12-20T04:18:39;6.60;97.40
9373;DHT22;10838;52.350;9.790;2023-12-20T04:21:06;6.60;97.40
9373;DHT22;10838;52.350;9.790;2023-12-20T04:23:34;6.60;97.40
9373;DHT22;10838;52.350;9.790;2023-12-20T04:26:00;6.60;97.40
9373;DHT22;10838;52.350;9.790;2023-12-20T04:28:27;6.60;97.40
9373;DHT22;10838;52.350;9.790;2023-12-20T04:30:55;6.60;97.40
9373;DHT22;10838;52.350;9.790;2023-12-20T04:33:22;6.60;97.40
9373;DHT22;10838;52.350;9.790;2023-12-20T04:35:49;6.60;97.40
9373;DHT22;10838;52.350;9.790;2023-12-20T04:38:15;6.60;97.40
9373;DHT22;10838;52.350;9.790;2023-12-20T04:40:43;6.60;97.40
9373;DHT22;10838;52.350;9.790;2023-12-20T04:43:10;6.60;97.40
9373;DHT22;10838;52.350;9.790;2023-12-20T04:45:37;6.60;97.40
9373;DHT22;10838;52.350;9.790;2023-12-20T04:48:04;6.60;97.40
9373;DHT22;10838;52.350;9.790;2023-12-20T04:50:31;6.60;97.40
9373;DHT22;10838;52.350;9.790;2023-12-20T04:52:58;6.60;97.40
9373;DHT22;10838;52.350;9.790;2023-12-20T04:55:25;6.60;97.40
9373;DHT22;10838;52.350;9.790;2023-12-20T04:57:52;6.70;97.40
9373;DHT22;10838;52.350;9.790;2023-12-20T05:00:18;6.70;97.40
9373;DHT22;10838;52.350;9.790;2023-12-20T05:02:45;6.70;97.40
9373;DHT22;10838;52.350;9.790;2023-12-20T05:05:11;6.70;97.50
9373;DHT22;10838;52.350;9.790;2023-12-20T05:07:40;6.70;97.40
9373;DHT22;10838;52.350;9.790;2023-12-20T05:10:07;6.70;97.50
9373;DHT22;10838;52.350;9.790;2023-12-20T05:12:34;6.70;97.40
9373;DHT22;10838;52.350;9.790;2023-12-20T05:15:03;6.70;97.40
9373;DHT22;10838;52.350;9.790;2023-12-20T05:17:29;6.70;97.40
9373;DHT22;10838;52.350;9.790;2023-12-20T05:19:56;6.70;97.40
9373;DHT22;10838;52.350;9.790;2023-12-20T05:22:22;6.70;97.40
9373;DHT22;10838;52.350;9.790;2023-12-20T05:24:49;6.70;97.40
9373;DHT22;10838;52.350;9.790;2023-12-20T05:27:15;6.80;97.40
9373;DHT22;10838;52.350;9.790;2023-12-20T05:29:42;6.80;97.40
9373;DHT22;10838;52.350;9.790;2023-12-20T05:32:10;6.80;97.40
9373;DHT22;10838;52.350;9.790;2023-12-20T05:34:37;6.80;97.40
9373;DHT22;10838;52.350;9.790;2023-12-20T05:37:03;6.80;97.40
9373;DHT22;10838;52.350;9.790;2023-12-20T05:39:30;6.80;97.40
9373;DHT22;10838;52.350;9.790;2023-12-20T05:41:57;6.90;97.40
9373;DHT22;10838;52.350;9.790;2023-12-20T05:44:23;6.80;97.40
9373;DHT22;10838;52.350;9.790;2023-12-20T05:46:50;6.80;97.40
9373;DHT22;10838;52.350;9.790;2023-12-20T05:49:18;6.90;97.50
9373;DHT22;10838;52.350;9.790;2023-12-20T05:51:44;6.90;97.50
9373;DHT22;10838;52.350;9.790;2023-12-20T05:54:11;6.90;97.50
9373;DHT22;10838;52.350;9.790;2023-12-20T05:56:37;6.90;97.50
9373;DHT22;10838;52.350;9.790;2023-12-20T05:59:04;6.90;97.50
9373;DHT22;10838;52.350;9.790;2023-12-20T06:01:30;6.90;97.40
9373;DHT22;10838;52.350;9.790;2023-12-20T06:03:57;6.90;97.40
9373;DHT22;10838;52.350;9.790;2023-12-20T06:06:25;6.90;97.40
9373;DHT22;10838;52.350;9.790;2023-12-20T06:08:51;6.90;97.40
9373;DHT22;10838;52.350;9.790;2023-12-20T06:11:18;6.90;97.40
9373;DHT22;10838;52.350;9.790;2023-12-20T06:13:44;6.90;97.40
9373;DHT22;10838;52.350;9.790;2023-12-20T06:16:11;6.90;97.40
9373;DHT22;10838;52.350;9.790;2023-12-20T06:18:38;6.90;97.40
9373;DHT22;10838;52.350;9.790;2023-12-20T06:21:04;6.90;97.40
9373;DHT22;10838;52.350;9.790;2023-12-20T06:23:33;6.90;97.40
9373;DHT22;10838;52.350;9.790;2023-12-20T06:26:00;6.90;97.40
9373;DHT22;10838;52.350;9.790;2023-12-20T06:28:27;6.90;97.40
9373;DHT22;10838;52.350;9.790;2023-12-20T06:30:53;6.90;97.40
9373;DHT22;10838;52.350;9.790;2023-12-20T06:33:20;6.90;97.40
9373;DHT22;10838;52.350;9.790;2023-12-20T06:35:47;6.90;97.40
9373;DHT22;10838;52.350;9.790;2023-12-20T06:38:14;6.90;97.40
9373;DHT22;10838;52.350;9.790;2023-12-20T06:40:42;6.90;97.30
9373;DHT22;10838;52.350;9.790;2023-12-20T06:43:09;6.90;97.30
9373;DHT22;10838;52.350;9.790;2023-12-20T06:45:35;6.90;97.30
9373;DHT22;10838;52.350;9.790;2023-12-20T06:48:02;7.00;97.30
9373;DHT22;10838;52.350;9.790;2023-12-20T06:50:29;7.00;97.30
9373;DHT22;10838;52.350;9.790;2023-12-20T06:52:55;7.00;97.30
9373;DHT22;10838;52.350;9.790;2023-12-20T06:55:22;7.00;97.30
9373;DHT22;10838;52.350;9.790;2023-12-20T06:57:50;7.00;97.30
9373;DHT22;10838;52.350;9.790;2023-12-20T07:00:17;7.00;97.30
9373;DHT22;10838;52.350;9.790;2023-12-20T07:02:45;7.00;97.30
9373;DHT22;10838;52.350;9.790;2023-12-20T07:05:14;6.90;97.20
9373;DHT22;10838;52.350;9.790;2023-12-20T07:07:42;6.90;97.20
9373;DHT22;10838;52.350;9.790;2023-12-20T07:10:08;6.90;97.20
9373;DHT22;10838;52.350;9.790;2023-12-20T07:12:35;6.90;97.20
9373;DHT22;10838;52.350;9.790;2023-12-20T07:15:04;6.90;97.20
9373;DHT22;10838;52.350;9.790;2023-12-20T07:17:32;6.90;97.20
9373;DHT22;10838;52.350;9.790;2023-12-20T07:19:59;6.90;97.20
9373;DHT22;10838;52.350;9.790;2023-12-20T07:22:28;6.80;97.20
9373;DHT22;10838;52.350;9.790;2023-12-20T07:24:55;6.80;97.20
9373;DHT22;10838;52.350;9.790;2023-12-20T07:27:22;6.80;97.20
9373;DHT22;10838;52.350;9.790;2023-12-20T07:29:48;6.80;97.20
9373;DHT22;10838;52.350;9.790;2023-12-20T07:32:16;6.80;97.20
9373;DHT22;10838;52.350;9.790;2023-12-20T07:34:43;6.80;97.20
9373;DHT22;10838;52.350;9.790;2023-12-20T07:37:09;6.80;97.20
9373;DHT22;10838;52.350;9.790;2023-12-20T07:39:37;6.80;97.20
9373;DHT22;10838;52.350;9.790;2023-12-20T07:42:05;6.80;97.20
9373;DHT22;10838;52.350;9.790;2023-12-20T07:44:32;6.80;97.20
9373;DHT22;10838;52.350;9.790;2023-12-20T07:46:58;6.80;97.20
9373;DHT22;10838;52.350;9.790;2023-12-20T07:49:27;6.80;97.20
9373;DHT22;10838;52.350;9.790;2023-12-20T07:51:54;6.80;97.20
9373;DHT22;10838;52.350;9.790;2023-12-20T07:54:20;6.80;97.30
9373;DHT22;10838;52.350;9.790;2023-12-20T07:56:48;6.80;97.30
9373;DHT22;10838;52.350;9.790;2023-12-20T07:59:15;6.80;97.30
9373;DHT22;10838;52.350;9.790;2023-12-20T08:01:42;6.80;97.30
9373;DHT22;10838;52.350;9.790;2023-12-20T08:04:08;6.80;97.30
9373;DHT22;10838;52.350;9.790;2023-12-20T08:06:36;6.80;97.40
9373;DHT22;10838;52.350;9.790;2023-12-20T08:09:03;6.80;97.40
9373;DHT22;10838;52.350;9.790;2023-12-20T08:11:30;6.80;97.40
9373;DHT22;10838;52.350;9.790;2023-12-20T08:13:57;6.80;97.40
9373;DHT22;10838;52.350;9.790;2023-12-20T08:16:23;6.80;97.40
9373;DHT22;10838;52.350;9.790;2023-12-20T08:18:51;6.80;97.50
9373;DHT22;10838;52.350;9.790;2023-12-20T08:21:18;6.80;97.50
9373;DHT22;10838;52.350;9.790;2023-12-20T08:23:46;6.80;97.50
9373;DHT22;10838;52.350;9.790;2023-12-20T08:26:18;6.80;97.50
9373;DHT22;10838;52.350;9.790;2023-12-20T08:28:46;6.80;97.50
9373;DHT22;10838;52.350;9.790;2023-12-20T08:31:14;6.90;97.50
9373;DHT22;10838;52.350;9.790;2023-12-20T08:33:41;6.90;97.50
9373;DHT22;10838;52.350;9.790;2023-12-20T08:36:07;6.90;97.50
9373;DHT22;10838;52.350;9.790;2023-12-20T08:38:34;6.90;97.50
9373;DHT22;10838;52.350;9.790;2023-12-20T08:41:02;6.90;97.50
9373;DHT22;10838;52.350;9.790;2023-12-20T08:43:30;6.90;97.50
9373;DHT22;10838;52.350;9.790;2023-12-20T08:45:57;6.90;97.50
9373;DHT22;10838;52.350;9.790;2023-12-20T08:48:24;6.90;97.50
9373;DHT22;10838;52.350;9.790;2023-12-20T08:50:50;7.00;97.50
9373;DHT22;10838;52.350;9.790;2023-12-20T08:53:17;7.00;97.50
9373;DHT22;10838;52.350;9.790;2023-12-20T08:55:44;7.00;97.50
9373;DHT22;10838;52.350;9.790;2023-12-20T08:58:12;7.00;97.50
9373;DHT22;10838;52.350;9.790;2023-12-20T09:00:39;7.10;97.50
9373;DHT22;10838;52.350;9.790;2023-12-20T09:03:05;7.00;97.50
9373;DHT22;10838;52.350;9.790;2023-12-20T09:05:32;7.10;97.50
9373;DHT22;10838;52.350;9.790;2023-12-20T09:07:59;7.10;97.50
9373;DHT22;10838;52.350;9.790;2023-12-20T09:10:25;7.10;97.50
9373;DHT22;10838;52.350;9.790;2023-12-20T09:12:52;7.10;97.50
9373;DHT22;10838;52.350;9.790;2023-12-20T09:15:24;7.10;97.50
9373;DHT22;10838;52.350;9.790;2023-12-20T09:17:51;7.10;97.50
9373;DHT22;10838;52.350;9.790;2023-12-20T09:20:17;7.10;97.50
9373;DHT22;10838;52.350;9.790;2023-12-20T09:22:44;7.20;97.50
9373;DHT22;10838;52.350;9.790;2023-12-20T09:25:11;7.10;97.50
9373;DHT22;10838;52.350;9.790;2023-12-20T09:27:38;7.30;97.50
9373;DHT22;10838;52.350;9.790;2023-12-20T09:30:05;7.20;97.50
9373;DHT22;10838;52.350;9.790;2023-12-20T09:32:33;7.20;97.50
9373;DHT22;10838;52.350;9.790;2023-12-20T09:34:59;7.20;97.40
9373;DHT22;10838;52.350;9.790;2023-12-20T09:37:26;7.20;97.40
9373;DHT22;10838;52.350;9.790;2023-12-20T09:39:53;7.30;97.40
9373;DHT22;10838;52.350;9.790;2023-12-20T09:42:26;7.30;97.40
9373;DHT22;10838;52.350;9.790;2023-12-20T09:44:57;7.30;97.40
9373;DHT22;10838;52.350;9.790;2023-12-20T09:47:25;7.30;97.40
9373;DHT22;10838;52.350;9.790;2023-12-20T09:49:54;7.30;97.40
9373;DHT22;10838;52.350;9.790;2023-12-20T09:52:22;7.40;97.40
9373;DHT22;10838;52.350;9.790;2023-12-20T09:54:52;7.30;97.40
9373;DHT22;10838;52.350;9.790;2023-12-20T09:57:20;7.40;97.40
9373;DHT22;10838;52.350;9.790;2023-12-20T09:59:47;7.40;97.30
9373;DHT22;10838;52.350;9.790;2023-12-20T10:02:14;7.40;97.30
9373;DHT22;10838;52.350;9.790;2023-12-20T10:04:46;7.40;97.30
9373;DHT22;10838;52.350;9.790;2023-12-20T10:07:15;7.40;97.30
9373;DHT22;10838;52.350;9.790;2023-12-20T10:09:42;7.50;97.30
9373;DHT22;10838;52.350;9.790;2023-12-20T10:12:09;7.50;97.30
9373;DHT22;10838;52.350;9.790;2023-12-20T10:14:36;7.50;97.30
9373;DHT22;10838;52.350;9.790;2023-12-20T10:17:03;7.50;97.30
9373;DHT22;10838;52.350;9.790;2023-12-20T10:19:30;7.50;97.20
9373;DHT22;10838;52.350;9.790;2023-12-20T10:21:57;7.60;97.20
9373;DHT22;10838;52.350;9.790;2023-12-20T10:24:25;7.60;97.20
9373;DHT22;10838;52.350;9.790;2023-12-20T10:27:01;7.60;97.20
9373;DHT22;10838;52.350;9.790;2023-12-20T10:29:32;7.70;97.20
9373;DHT22;10838;52.350;9.790;2023-12-20T10:31:58;7.70;97.20
9373;DHT22;10838;52.350;9.790;2023-12-20T10:34:25;7.70;97.20
9373;DHT22;10838;52.350;9.790;2023-12-20T10:36:52;7.70;97.20
9373;DHT22;10838;52.350;9.790;2023-12-20T10:39:18;7.70;97.20
9373;DHT22;10838;52.350;9.790;2023-12-20T10:41:47;7.70;97.20
9373;DHT22;10838;52.350;9.790;2023-12-20T10:44:14;7.70;97.20
9373;DHT22;10838;52.350;9.790;2023-12-20T10:46:41;7.70;97.20
9373;DHT22;10838;52.350;9.790;2023-12-20T10:49:16;7.70;97.20
9373;DHT22;10838;52.350;9.790;2023-12-20T10:51:44;7.70;97.20
9373;DHT22;10838;52.350;9.790;2023-12-20T10:54:12;7.80;97.20
9373;DHT22;10838;52.350;9.790;2023-12-20T10:56:39;7.80;97.20
9373;DHT22;10838;52.350;9.790;2023-12-20T10:59:09;7.80;97.20
9373;DHT22;10838;52.350;9.790;2023-12-20T11:01:38;7.80;97.30
9373;DHT22;10838;52.350;9.790;2023-12-20T11:04:09;7.80;97.30
9373;DHT22;10838;52.350;9.790;2023-12-20T11:06:52;7.80;97.30
9373;DHT22;10838;52.350;9.790;2023-12-20T11:09:25;7.80;97.30
9373;DHT22;10838;52.350;9.790;2023-12-20T11:12:02;7.90;97.30
9373;DHT22;10838;52.350;9.790;2023-12-20T11:14:37;7.90;97.30
9373;DHT22;10838;52.350;9.790;2023-12-20T11:17:06;7.90;97.40
9373;DHT22;10838;52.350;9.790;2023-12-20T11:19:35;7.90;97.40
9373;DHT22;10838;52.350;9.790;2023-12-20T11:22:03;8.00;97.40
9373;DHT22;10838;52.350;9.790;2023-12-20T11:24:31;8.00;97.40
9373;DHT22;10838;52.350;9.790;2023-12-20T11:26:59;8.00;97.40
9373;DHT22;10838;52.350;9.790;2023-12-20T11:29:30;8.00;97.40
9373;DHT22;10838;52.350;9.790;2023-12-20T11:31:59;8.00;97.40
9373;DHT22;10838;52.350;9.790;2023-12-20T11:34:27;8.00;97.40
9373;DHT22;10838;52.350;9.790;2023-12-20T11:36:57;8.00;97.40
9373;DHT22;10838;52.350;9.790;2023-12-20T11:39:25;8.00;97.40
9373;DHT22;10838;52.350;9.790;2023-12-20T11:41:54;8.00;97.40
9373;DHT22;10838;52.350;9.790;2023-12-20T11:44:21;7.90;97.40
9373;DHT22;10838;52.350;9.790;2023-12-20T11:46:48;7.90;97.40
9373;DHT22;10838;52.350;9.790;2023-12-20T11:49:16;7.90;97.40
9373;DHT22;10838;52.350;9.790;2023-12-20T11:51:44;7.90;97.50
9373;DHT22;10838;52.350;9.790;2023-12-20T11:54:10;7.80;97.50
9373;DHT22;10838;52.350;9.790;2023-12-20T11:56:37;7.80;97.50
9373;DHT22;10838;52.350;9.790;2023-12-20T11:59:04;7.80;97.50
9373;DHT22;10838;52.350;9.790;2023-12-20T12:01:31;7.70;97.50
9373;DHT22;10838;52.350;9.790;2023-12-20T12:04:04;7.60;97.50
9373;DHT22;10838;52.350;9.790;2023-12-20T12:06:32;7.60;97.40
9373;DHT22;10838;52.350;9.790;2023-12-20T12:08:59;7.50;97.40
9373;DHT22;10838;52.350;9.790;2023-12-20T12:11:25;7.50;97.40
9373;DHT22;10838;52.350;9.790;2023-12-20T12:13:52;7.40;97.40
9373;DHT22;10838;52.350;9.790;2023-12-20T12:16:19;7.40;97.40
9373;DHT22;10838;52.350;9.790;2023-12-20T12:18:46;7.30;97.30
9373;DHT22;10838;52.350;9.790;2023-12-20T12:21:21;7.30;97.30
9373;DHT22;10838;52.350;9.790;2023-12-20T12:23:48;7.20;97.30
9373;DHT22;10838;52.350;9.790;2023-12-20T12:26:14;7.20;97.30
9373;DHT22;10838;52.350;9.790;2023-12-20T12:28:41;7.10;97.20
9373;DHT22;10838;52.350;9.790;2023-12-20T12:31:09;7.10;97.20
9373;DHT22;10838;52.350;9.790;2023-12-20T12:33:35;7.10;97.20
9373;DHT22;10838;52.350;9.790;2023-12-20T12:36:02;7.10;97.20
9373;DHT22;10838;52.350;9.790;2023-12-20T12:38:30;7.00;97.20
9373;DHT22;10838;52.350;9.790;2023-12-20T12:40:58;7.00;97.20
9373;DHT22;10838;52.350;9.790;2023-12-20T12:43:26;7.00;97.20
9373;DHT22;10838;52.350;9.790;2023-12-20T12:45:53;7.00;97.20
9373;DHT22;10838;52.350;9.790;2023-12-20T12:48:20;7.00;97.20
9373;DHT22;10838;52.350;9.790;2023-12-20T12:50:48;7.00;97.20
9373;DHT22;10838;52.350;9.790;2023-12-20T12:53:17;7.00;97.10
9373;DHT22;10838;52.350;9.790;2023-12-20T12:55:43;6.90;97.10
9373;DHT22;10838;52.350;9.790;2023-12-20T12:58:11;6.90;97.10
9373;DHT22;10838;52.350;9.790;2023-12-20T13:00:38;6.90;97.00
9373;DHT22;10838;52.350;9.790;2023-12-20T13:03:04;6.90;97.00
9373;DHT22;10838;52.350;9.790;2023-12-20T13:05:31;6.90;96.90
9373;DHT22;10838;52.350;9.790;2023-12-20T13:07:58;6.90;96.90
9373;DHT22;10838;52.350;9.790;2023-12-20T13:10:24;6.90;96.90
9373;DHT22;10838;52.350;9.790;2023-12-20T13:12:51;6.90;96.90
9373;DHT22;10838;52.350;9.790;2023-12-20T13:15:19;6.80;96.90
9373;DHT22;10838;52.350;9.790;2023-12-20T13:17:45;6.80;96.90
9373;DHT22;10838;52.350;9.790;2023-12-20T13:20:12;6.80;96.90
9373;DHT22;10838;52.350;9.790;2023-12-20T13:22:39;6.80;96.90
9373;DHT22;10838;52.350;9.790;2023-12-20T13:25:06;6.80;96.90
9373;DHT22;10838;52.350;9.790;2023-12-20T13:27:33;6.80;96.90
9373;DHT22;10838;52.350;9.790;2023-12-20T13:29:59;6.90;96.90
9373;DHT22;10838;52.350;9.790;2023-12-20T13:32:27;6.90;97.00
9373;DHT22;10838;52.350;9.790;2023-12-20T13:34:54;6.90;97.00
9373;DHT22;10838;52.350;9.790;2023-12-20T13:37:21;6.90;97.00
9373;DHT22;10838;52.350;9.790;2023-12-20T13:39:47;6.90;97.00
9373;DHT22;10838;52.350;9.790;2023-12-20T13:42:14;7.00;97.00
9373;DHT22;10838;52.350;9.790;2023-12-20T13:44:40;7.00;97.00
9373;DHT22;10838;52.350;9.790;2023-12-20T13:47:07;7.00;97.10
9373;DHT22;10838;52.350;9.790;2023-12-20T13:49:35;7.10;97.10
9373;DHT22;10838;52.350;9.790;2023-12-20T13:52:02;7.10;97.10
9373;DHT22;10838;52.350;9.790;2023-12-20T13:54:29;7.10;97.10
9373;DHT22;10838;52.350;9.790;2023-12-20T13:56:56;7.10;97.10
9373;DHT22;10838;52.350;9.790;2023-12-20T13:59:23;7.10;97.10
9373;DHT22;10838;52.350;9.790;2023-12-20T14:01:49;7.20;97.10
9373;DHT22;10838;52.350;9.790;2023-12-20T14:04:16;7.20;97.20
9373;DHT22;10838;52.350;9.790;2023-12-20T14:06:44;7.20;97.20
9373;DHT22;10838;52.350;9.790;2023-12-20T14:09:11;7.20;97.20
9373;DHT22;10838;52.350;9.790;2023-12-20T14:11:38;7.20;97.20
9373;DHT22;10838;52.350;9.790;2023-12-20T14:14:06;7.20;97.20
9373;DHT22;10838;52.350;9.790;2023-12-20T14:16:33;7.30;97.20
9373;DHT22;10838;52.350;9.790;2023-12-20T14:19:00;7.30;97.20
9373;DHT22;10838;52.350;9.790;2023-12-20T14:21:28;7.30;97.20
9373;DHT22;10838;52.350;9.790;2023-12-20T14:23:56;7.30;97.20
9373;DHT22;10838;52.350;9.790;2023-12-20T14:26:22;7.30;97.20
9373;DHT22;10838;52.350;9.790;2023-12-20T14:28:49;7.30;97.20
9373;DHT22;10838;52.350;9.790;2023-12-20T14:31:15;7.30;97.10
9373;DHT22;10838;52.350;9.790;2023-12-20T14:33:42;7.30;97.10
9373;DHT22;10838;52.350;9.790;2023-12-20T14:36:08;7.30;97.10
9373;DHT22;10838;52.350;9.790;2023-12-20T14:38:35;7.30;97.10
9373;DHT22;10838;52.350;9.790;2023-12-20T14:41:03;7.40;97.10
9373;DHT22;10838;52.350;9.790;2023-12-20T14:43:31;7.30;97.00
9373;DHT22;10838;52.350;9.790;2023-12-20T14:45:58;7.30;97.00
9373;DHT22;10838;52.350;9.790;2023-12-20T14:48:24;7.30;97.00
9373;DHT22;10838;52.350;9.790;2023-12-20T14:50:52;7.30;96.90
9373;DHT22;10838;52.350;9.790;2023-12-20T14:53:19;7.30;96.90
9373;DHT22;10838;52.350;9.790;2023-12-20T14:55:46;7.30;96.90
9373;DHT22;10838;52.350;9.790;2023-12-20T14:58:15;7.30;96.90
9373;DHT22;10838;52.350;9.790;2023-12-20T15:00:41;7.30;96.80
9373;DHT22;10838;52.350;9.790;2023-12-20T15:03:08;7.40;96.80
9373;DHT22;10838;52.350;9.790;2023-12-20T15:05:34;7.40;96.80
9373;DHT22;10838;52.350;9.790;2023-12-20T15:08:07;7.40;96.80
9373;DHT22;10838;52.350;9.790;2023-12-20T15:10:36;7.40;96.80
9373;DHT22;10838;52.350;9.790;2023-12-20T15:13:02;7.40;96.80
9373;DHT22;10838;52.350;9.790;2023-12-20T15:15:30;7.40;96.70
9373;DHT22;10838;52.350;9.790;2023-12-20T15:17:58;7.30;96.70
9373;DHT22;10838;52.350;9.790;2023-12-20T15:20:25;7.30;96.70
9373;DHT22;10838;52.350;9.790;2023-12-20T15:22:52;7.40;96.70
9373;DHT22;10838;52.350;9.790;2023-12-20T15:25:19;7.30;96.70
9373;DHT22;10838;52.350;9.790;2023-12-20T15:27:47;7.40;96.70
9373;DHT22;10838;52.350;9.790;2023-12-20T15:30:18;7.30;96.60
9373;DHT22;10838;52.350;9.790;2023-12-20T15:32:46;7.30;96.60
9373;DHT22;10838;52.350;9.790;2023-12-20T15:35:12;7.30;96.60
9373;DHT22;10838;52.350;9.790;2023-12-20T15:37:39;7.30;96.60
9373;DHT22;10838;52.350;9.790;2023-12-20T15:40:07;7.30;96.50
9373;DHT22;10838;52.350;9.790;2023-12-20T15:42:35;7.30;96.50
9373;DHT22;10838;52.350;9.790;2023-12-20T15:45:18;7.30;96.50
9373;DHT22;10838;52.350;9.790;2023-12-20T15:47:46;7.30;96.40
9373;DHT22;10838;52.350;9.790;2023-12-20T15:50:12;7.30;96.40
9373;DHT22;10838;52.350;9.790;2023-12-20T15:52:38;7.30;96.30
9373;DHT22;10838;52.350;9.790;2023-12-20T15:55:05;7.30;96.30
9373;DHT22;10838;52.350;9.790;2023-12-20T15:57:32;7.30;96.20
9373;DHT22;10838;52.350;9.790;2023-12-20T15:59:59;7.30;96.20
9373;DHT22;10838;52.350;9.790;2023-12-20T16:02:26;7.30;96.20